sensor_id;sensor_type;location;lat;lon;timestamp;P1;durP1;ratioP1;P2;durP2;ratioP2
22955;SDS011;40888;48.148;11.526;2024-01-25T00:01:17;14.20;;;3.63;;
22955;SDS011;40888;48.148;11.526;2024-01-25T00:03:43;11.17;;;3.43;;
22955;SDS011;40888;48.148;11.526;2024-01-25T00:06:09;11.83;;;3.10;;
22955;SDS011;40888;48.148;11.526;2024-01-25T00:08:35;8.87;;;3.10;;
22955;SDS011;40888;48.148;11.526;2024-01-25T00:11:02;10.77;;;2.93;;
22955;SDS011;40888;48.148;11.526;2024-01-25T00:13:28;10.53;;;3.03;;
22955;SDS011;40888;48.148;11.526;2024-01-25T00:15:54;8.33;;;2.70;;
22955;SDS011;40888;48.148;11.526;2024-01-25T00:18:20;10.17;;;2.70;;
22955;SDS011;40888;48.148;11.526;2024-01-25T00:20:46;6.87;;;2.53;;
22955;SDS011;40888;48.148;11.526;2024-01-25T00:23:12;6.83;;;2.50;;
22955;SDS011;40888;48.148;11.526;2024-01-25T00:25:38;7.77;;;2.50;;
22955;SDS011;40888;48.148;11.526;2024-01-25T00:28:04;6.83;;;2.30;;
22955;SDS011;40888;48.148;11.526;2024-01-25T00:30:31;5.93;;;2.40;;
22955;SDS011;40888;48.148;11.526;2024-01-25T00:32:57;6.87;;;2.37;;
22955;SDS011;40888;48.148;11.526;2024-01-25T00:35:26;8.67;;;2.50;;
22955;SDS011;40888;48.148;11.526;2024-01-25T00:37:52;7.50;;;2.70;;
22955;SDS011;40888;48.148;11.526;2024-01-25T00:40:18;10.27;;;2.83;;
22955;SDS011;40888;48.148;11.526;2024-01-25T00:42:45;8.10;;;2.60;;
22955;SDS011;40888;48.148;11.526;2024-01-25T00:45:18;9.70;;;2.57;;
22955;SDS011;40888;48.148;11.526;2024-01-25T00:47:44;6.27;;;1.90;;
22955;SDS011;40888;48.148;11.526;2024-01-25T00:50:10;10.63;;;2.50;;
22955;SDS011;40888;48.148;11.526;2024-01-25T00:52:37;10.20;;;2.77;;
22955;SDS011;40888;48.148;11.526;2024-01-25T00:55:03;12.67;;;3.10;;
22955;SDS011;40888;48.148;11.526;2024-01-25T00:57:29;12.10;;;2.40;;
22955;SDS011;40888;48.148;11.526;2024-01-25T00:59:55;9.20;;;2.70;;
22955;SDS011;40888;48.148;11.526;2024-01-25T01:02:22;8.97;;;2.60;;
22955;SDS011;40888;48.148;11.526;2024-01-25T01:04:48;9.50;;;2.80;;
22955;SDS011;40888;48.148;11.526;2024-01-25T01:07:14;9.50;;;3.07;;
22955;SDS011;40888;48.148;11.526;2024-01-25T01:09:40;11.87;;;2.50;;
22955;SDS011;40888;48.148;11.526;2024-01-25T01:12:06;10.33;;;2.90;;
22955;SDS011;40888;48.148;11.526;2024-01-25T01:14:33;10.83;;;3.13;;
22955;SDS011;40888;48.148;11.526;2024-01-25T01:16:59;10.57;;;2.67;;
22955;SDS011;40888;48.148;11.526;2024-01-25T01:19:25;8.83;;;2.77;;
22955;SDS011;40888;48.148;11.526;2024-01-25T01:21:51;11.83;;;2.80;;
22955;SDS011;40888;48.148;11.526;2024-01-25T01:24:17;13.03;;;2.97;;
22955;SDS011;40888;48.148;11.526;2024-01-25T01:26:43;10.43;;;3.20;;
22955;SDS011;40888;48.148;11.526;2024-01-25T01:29:11;14.53;;;3.33;;
22955;SDS011;40888;48.148;11.526;2024-01-25T01:31:37;12.80;;;3.30;;
22955;SDS011;40888;48.148;11.526;2024-01-25T01:34:03;10.93;;;3.00;;
22955;SDS011;40888;48.148;11.526;2024-01-25T01:36:29;11.50;;;2.33;;
22955;SDS011;40888;48.148;11.526;2024-01-25T01:38:55;10.67;;;2.90;;
22955;SDS011;40888;48.148;11.526;2024-01-25T01:41:21;9.50;;;3.20;;
22955;SDS011;40888;48.148;11.526;2024-01-25T01:43:51;9.23;;;3.23;;
22955;SDS011;40888;48.148;11.526;2024-01-25T01:46:22;9.53;;;3.13;;
22955;SDS011;40888;48.148;11.526;2024-01-25T01:48:52;10.57;;;2.53;;
22955;SDS011;40888;48.148;11.526;2024-01-25T01:51:18;8.03;;;3.20;;
22955;SDS011;40888;48.148;11.526;2024-01-25T01:53:44;12.03;;;3.07;;
22955;SDS011;40888;48.148;11.526;2024-01-25T01:56:11;11.73;;;3.40;;
22955;SDS011;40888;48.148;11.526;2024-01-25T01:58:37;9.53;;;2.73;;
22955;SDS011;40888;48.148;11.526;2024-01-25T02:01:04;10.60;;;2.90;;
22955;SDS011;40888;48.148;11.526;2024-01-25T02:03:30;8.83;;;2.83;;
22955;SDS011;40888;48.148;11.526;2024-01-25T02:05:56;9.60;;;3.00;;
22955;SDS011;40888;48.148;11.526;2024-01-25T02:08:28;10.83;;;2.93;;
22955;SDS011;40888;48.148;11.526;2024-01-25T02:10:54;6.60;;;2.83;;
22955;SDS011;40888;48.148;11.526;2024-01-25T02:13:20;10.57;;;3.17;;
22955;SDS011;40888;48.148;11.526;2024-01-25T02:15:47;9.67;;;2.87;;
22955;SDS011;40888;48.148;11.526;2024-01-25T02:18:13;13.77;;;3.20;;
22955;SDS011;40888;48.148;11.526;2024-01-25T02:20:42;9.80;;;2.73;;
22955;SDS011;40888;48.148;11.526;2024-01-25T02:23:08;10.60;;;3.23;;
22955;SDS011;40888;48.148;11.526;2024-01-25T02:25:35;10.13;;;2.97;;
22955;SDS011;40888;48.148;11.526;2024-01-25T02:28:01;11.73;;;3.50;;
22955;SDS011;40888;48.148;11.526;2024-01-25T02:30:27;10.17;;;2.73;;
22955;SDS011;40888;48.148;11.526;2024-01-25T02:32:53;9.00;;;2.90;;
22955;SDS011;40888;48.148;11.526;2024-01-25T02:35:19;14.53;;;3.00;;
22955;SDS011;40888;48.148;11.526;2024-01-25T02:37:45;7.77;;;2.33;;
22955;SDS011;40888;48.148;11.526;2024-01-25T02:40:11;9.40;;;3.07;;
22955;SDS011;40888;48.148;11.526;2024-01-25T02:42:37;7.30;;;2.67;;
22955;SDS011;40888;48.148;11.526;2024-01-25T02:45:04;10.73;;;2.90;;
22955;SDS011;40888;48.148;11.526;2024-01-25T02:47:30;13.20;;;3.40;;
22955;SDS011;40888;48.148;11.526;2024-01-25T02:49:56;8.57;;;2.90;;
22955;SDS011;40888;48.148;11.526;2024-01-25T02:52:22;8.83;;;2.60;;
22955;SDS011;40888;48.148;11.526;2024-01-25T02:54:48;10.90;;;3.17;;
22955;SDS011;40888;48.148;11.526;2024-01-25T02:57:15;10.70;;;3.00;;
22955;SDS011;40888;48.148;11.526;2024-01-25T02:59:41;9.73;;;3.07;;
22955;SDS011;40888;48.148;11.526;2024-01-25T03:02:07;7.87;;;2.50;;
22955;SDS011;40888;48.148;11.526;2024-01-25T03:04:33;10.43;;;2.60;;
22955;SDS011;40888;48.148;11.526;2024-01-25T03:06:59;11.33;;;2.73;;
22955;SDS011;40888;48.148;11.526;2024-01-25T03:09:25;11.53;;;2.60;;
22955;SDS011;40888;48.148;11.526;2024-01-25T03:11:53;9.63;;;2.90;;
22955;SDS011;40888;48.148;11.526;2024-01-25T03:14:19;8.97;;;2.60;;
22955;SDS011;40888;48.148;11.526;2024-01-25T03:16:45;9.23;;;2.60;;
22955;SDS011;40888;48.148;11.526;2024-01-25T03:19:11;6.53;;;2.40;;
22955;SDS011;40888;48.148;11.526;2024-01-25T03:21:38;10.73;;;2.80;;
22955;SDS011;40888;48.148;11.526;2024-01-25T03:24:04;9.40;;;2.97;;
22955;SDS011;40888;48.148;11.526;2024-01-25T03:26:30;8.37;;;2.67;;
22955;SDS011;40888;48.148;11.526;2024-01-25T03:28:56;12.17;;;2.30;;
22955;SDS011;40888;48.148;11.526;2024-01-25T03:31:22;8.90;;;2.50;;
22955;SDS011;40888;48.148;11.526;2024-01-25T03:33:48;10.13;;;2.93;;
22955;SDS011;40888;48.148;11.526;2024-01-25T03:36:14;12.07;;;2.83;;
22955;SDS011;40888;48.148;11.526;2024-01-25T03:38:41;10.63;;;2.80;;
22955;SDS011;40888;48.148;11.526;2024-01-25T03:41:07;8.57;;;2.87;;
22955;SDS011;40888;48.148;11.526;2024-01-25T03:43:34;7.00;;;2.63;;
22955;SDS011;40888;48.148;11.526;2024-01-25T03:46:00;8.93;;;2.70;;
22955;SDS011;40888;48.148;11.526;2024-01-25T03:48:27;7.07;;;2.27;;
22955;SDS011;40888;48.148;11.526;2024-01-25T03:50:54;10.73;;;2.53;;
22955;SDS011;40888;48.148;11.526;2024-01-25T03:53:21;9.23;;;2.50;;
22955;SDS011;40888;48.148;11.526;2024-01-25T03:55:48;13.43;;;3.23;;
22955;SDS011;40888;48.148;11.526;2024-01-25T03:58:17;9.40;;;2.53;;
22955;SDS011;40888;48.148;11.526;2024-01-25T04:00:43;7.57;;;2.23;;
22955;SDS011;40888;48.148;11.526;2024-01-25T04:03:10;9.77;;;2.60;;
22955;SDS011;40888;48.148;11.526;2024-01-25T04:05:36;8.70;;;2.60;;
22955;SDS011;40888;48.148;11.526;2024-01-25T04:08:04;9.47;;;2.77;;
22955;SDS011;40888;48.148;11.526;2024-01-25T04:10:30;8.90;;;2.30;;
22955;SDS011;40888;48.148;11.526;2024-01-25T04:12:59;14.37;;;2.70;;
22955;SDS011;40888;48.148;11.526;2024-01-25T04:15:26;10.43;;;2.90;;
22955;SDS011;40888;48.148;11.526;2024-01-25T04:17:52;8.20;;;2.37;;
22955;SDS011;40888;48.148;11.526;2024-01-25T04:20:19;9.83;;;2.67;;
22955;SDS011;40888;48.148;11.526;2024-01-25T04:22:45;10.73;;;3.00;;
22955;SDS011;40888;48.148;11.526;2024-01-25T04:25:11;8.43;;;2.70;;
22955;SDS011;40888;48.148;11.526;2024-01-25T04:27:37;9.80;;;2.70;;
22955;SDS011;40888;48.148;11.526;2024-01-25T04:30:04;9.50;;;2.63;;
22955;SDS011;40888;48.148;11.526;2024-01-25T04:32:30;12.87;;;2.87;;
22955;SDS011;40888;48.148;11.526;2024-01-25T04:34:56;10.47;;;2.67;;
22955;SDS011;40888;48.148;11.526;2024-01-25T04:37:22;7.43;;;2.27;;
22955;SDS011;40888;48.148;11.526;2024-01-25T04:39:48;8.80;;;2.90;;
22955;SDS011;40888;48.148;11.526;2024-01-25T04:42:15;10.10;;;2.80;;
22955;SDS011;40888;48.148;11.526;2024-01-25T04:44:41;10.53;;;2.77;;
22955;SDS011;40888;48.148;11.526;2024-01-25T04:47:07;5.70;;;2.47;;
22955;SDS011;40888;48.148;11.526;2024-01-25T04:49:33;11.50;;;2.97;;
22955;SDS011;40888;48.148;11.526;2024-01-25T04:51:59;10.57;;;2.53;;
22955;SDS011;40888;48.148;11.526;2024-01-25T04:54:25;11.90;;;2.73;;
22955;SDS011;40888;48.148;11.526;2024-01-25T04:56:51;9.27;;;2.60;;
22955;SDS011;40888;48.148;11.526;2024-01-25T04:59:17;9.57;;;2.57;;
22955;SDS011;40888;48.148;11.526;2024-01-25T05:01:43;8.07;;;2.63;;
22955;SDS011;40888;48.148;11.526;2024-01-25T05:04:09;8.60;;;2.70;;
22955;SDS011;40888;48.148;11.526;2024-01-25T05:06:35;12.73;;;2.83;;
22955;SDS011;40888;48.148;11.526;2024-01-25T05:09:02;12.47;;;3.37;;
22955;SDS011;40888;48.148;11.526;2024-01-25T05:11:28;7.47;;;2.10;;
22955;SDS011;40888;48.148;11.526;2024-01-25T05:13:54;8.10;;;2.17;;
22955;SDS011;40888;48.148;11.526;2024-01-25T05:16:20;7.57;;;2.40;;
22955;SDS011;40888;48.148;11.526;2024-01-25T05:18:46;8.80;;;2.70;;
22955;SDS011;40888;48.148;11.526;2024-01-25T05:21:12;8.33;;;2.20;;
22955;SDS011;40888;48.148;11.526;2024-01-25T05:23:38;6.83;;;2.07;;
22955;SDS011;40888;48.148;11.526;2024-01-25T05:26:05;7.50;;;2.53;;
22955;SDS011;40888;48.148;11.526;2024-01-25T05:28:31;9.83;;;2.37;;
22955;SDS011;40888;48.148;11.526;2024-01-25T05:30:57;12.07;;;2.60;;
22955;SDS011;40888;48.148;11.526;2024-01-25T05:33:23;7.70;;;2.47;;
22955;SDS011;40888;48.148;11.526;2024-01-25T05:35:49;9.23;;;2.43;;
22955;SDS011;40888;48.148;11.526;2024-01-25T05:38:16;6.67;;;2.70;;
22955;SDS011;40888;48.148;11.526;2024-01-25T05:40:42;6.23;;;2.13;;
22955;SDS011;40888;48.148;11.526;2024-01-25T05:43:08;8.02;;;2.60;;
22955;SDS011;40888;48.148;11.526;2024-01-25T05:45:34;9.57;;;2.57;;
22955;SDS011;40888;48.148;11.526;2024-01-25T05:48:00;9.77;;;2.63;;
22955;SDS011;40888;48.148;11.526;2024-01-25T05:50:26;7.13;;;2.53;;
22955;SDS011;40888;48.148;11.526;2024-01-25T05:52:52;11.37;;;2.60;;
22955;SDS011;40888;48.148;11.526;2024-01-25T05:55:18;9.20;;;2.70;;
22955;SDS011;40888;48.148;11.526;2024-01-25T05:57:44;10.23;;;2.90;;
22955;SDS011;40888;48.148;11.526;2024-01-25T06:00:11;12.57;;;2.97;;
22955;SDS011;40888;48.148;11.526;2024-01-25T06:02:38;9.83;;;2.80;;
22955;SDS011;40888;48.148;11.526;2024-01-25T06:05:04;11.13;;;2.70;;
22955;SDS011;40888;48.148;11.526;2024-01-25T06:07:30;10.47;;;3.37;;
22955;SDS011;40888;48.148;11.526;2024-01-25T06:09:56;12.30;;;3.27;;
22955;SDS011;40888;48.148;11.526;2024-01-25T06:12:22;9.10;;;2.67;;
22955;SDS011;40888;48.148;11.526;2024-01-25T06:14:48;11.20;;;2.53;;
22955;SDS011;40888;48.148;11.526;2024-01-25T06:17:14;8.80;;;3.03;;
22955;SDS011;40888;48.148;11.526;2024-01-25T06:19:40;12.07;;;3.37;;
22955;SDS011;40888;48.148;11.526;2024-01-25T06:22:06;7.97;;;2.50;;
22955;SDS011;40888;48.148;11.526;2024-01-25T06:24:32;9.63;;;2.97;;
22955;SDS011;40888;48.148;11.526;2024-01-25T06:26:58;8.47;;;2.60;;
22955;SDS011;40888;48.148;11.526;2024-01-25T06:29:24;13.67;;;3.07;;
22955;SDS011;40888;48.148;11.526;2024-01-25T06:31:50;6.93;;;2.47;;
22955;SDS011;40888;48.148;11.526;2024-01-25T06:34:16;13.53;;;3.10;;
22955;SDS011;40888;48.148;11.526;2024-01-25T06:36:42;13.37;;;2.90;;
22955;SDS011;40888;48.148;11.526;2024-01-25T06:39:08;10.03;;;2.90;;
22955;SDS011;40888;48.148;11.526;2024-01-25T06:41:35;11.30;;;2.70;;
22955;SDS011;40888;48.148;11.526;2024-01-25T06:44:01;12.83;;;3.17;;
22955;SDS011;40888;48.148;11.526;2024-01-25T06:46:28;11.73;;;3.07;;
22955;SDS011;40888;48.148;11.526;2024-01-25T06:48:54;12.80;;;3.80;;
22955;SDS011;40888;48.148;11.526;2024-01-25T06:51:20;11.60;;;3.63;;
22955;SDS011;40888;48.148;11.526;2024-01-25T06:53:46;9.23;;;3.00;;
22955;SDS011;40888;48.148;11.526;2024-01-25T06:56:12;10.03;;;3.03;;
22955;SDS011;40888;48.148;11.526;2024-01-25T06:58:38;11.60;;;2.97;;
22955;SDS011;40888;48.148;11.526;2024-01-25T07:01:04;11.37;;;2.97;;
22955;SDS011;40888;48.148;11.526;2024-01-25T07:03:30;13.33;;;3.23;;
22955;SDS011;40888;48.148;11.526;2024-01-25T07:05:56;9.53;;;2.97;;
22955;SDS011;40888;48.148;11.526;2024-01-25T07:08:22;10.40;;;3.10;;
22955;SDS011;40888;48.148;11.526;2024-01-25T07:10:49;12.70;;;3.80;;
22955;SDS011;40888;48.148;11.526;2024-01-25T07:13:15;12.37;;;3.13;;
22955;SDS011;40888;48.148;11.526;2024-01-25T07:15:41;12.93;;;3.33;;
22955;SDS011;40888;48.148;11.526;2024-01-25T07:18:07;12.40;;;4.23;;
22955;SDS011;40888;48.148;11.526;2024-01-25T07:20:33;12.53;;;3.70;;
22955;SDS011;40888;48.148;11.526;2024-01-25T07:23:00;12.73;;;3.77;;
22955;SDS011;40888;48.148;11.526;2024-01-25T07:25:26;9.93;;;3.23;;
22955;SDS011;40888;48.148;11.526;2024-01-25T07:27:52;13.53;;;3.57;;
22955;SDS011;40888;48.148;11.526;2024-01-25T07:30:18;12.33;;;2.90;;
22955;SDS011;40888;48.148;11.526;2024-01-25T07:32:44;11.03;;;3.23;;
22955;SDS011;40888;48.148;11.526;2024-01-25T07:35:11;15.80;;;4.17;;
22955;SDS011;40888;48.148;11.526;2024-01-25T07:37:38;9.63;;;3.27;;
22955;SDS011;40888;48.148;11.526;2024-01-25T07:40:08;13.53;;;3.63;;
22955;SDS011;40888;48.148;11.526;2024-01-25T07:42:34;11.27;;;3.33;;
22955;SDS011;40888;48.148;11.526;2024-01-25T07:45:00;11.43;;;3.23;;
22955;SDS011;40888;48.148;11.526;2024-01-25T07:47:26;11.33;;;3.27;;
22955;SDS011;40888;48.148;11.526;2024-01-25T07:49:52;13.13;;;3.23;;
22955;SDS011;40888;48.148;11.526;2024-01-25T07:52:18;10.60;;;3.20;;
22955;SDS011;40888;48.148;11.526;2024-01-25T07:54:45;10.27;;;3.43;;
22955;SDS011;40888;48.148;11.526;2024-01-25T07:57:11;11.93;;;3.70;;
22955;SDS011;40888;48.148;11.526;2024-01-25T07:59:37;9.63;;;3.43;;
22955;SDS011;40888;48.148;11.526;2024-01-25T08:02:03;9.80;;;2.93;;
22955;SDS011;40888;48.148;11.526;2024-01-25T08:04:29;10.60;;;2.93;;
22955;SDS011;40888;48.148;11.526;2024-01-25T08:06:55;12.20;;;3.47;;
22955;SDS011;40888;48.148;11.526;2024-01-25T08:09:21;9.43;;;3.07;;
22955;SDS011;40888;48.148;11.526;2024-01-25T08:11:48;15.10;;;3.63;;
22955;SDS011;40888;48.148;11.526;2024-01-25T08:14:14;20.03;;;4.07;;
22955;SDS011;40888;48.148;11.526;2024-01-25T08:16:41;14.17;;;3.27;;
22955;SDS011;40888;48.148;11.526;2024-01-25T08:19:07;11.30;;;3.10;;
22955;SDS011;40888;48.148;11.526;2024-01-25T08:21:33;15.70;;;3.90;;
22955;SDS011;40888;48.148;11.526;2024-01-25T08:24:01;11.27;;;3.40;;
22955;SDS011;40888;48.148;11.526;2024-01-25T08:26:27;13.33;;;3.37;;
22955;SDS011;40888;48.148;11.526;2024-01-25T08:28:53;11.57;;;3.77;;
22955;SDS011;40888;48.148;11.526;2024-01-25T08:31:19;15.33;;;3.83;;
22955;SDS011;40888;48.148;11.526;2024-01-25T08:33:45;13.77;;;3.63;;
22955;SDS011;40888;48.148;11.526;2024-01-25T08:36:12;16.03;;;3.53;;
22955;SDS011;40888;48.148;11.526;2024-01-25T08:38:38;11.80;;;3.57;;
22955;SDS011;40888;48.148;11.526;2024-01-25T08:41:04;11.97;;;3.40;;
22955;SDS011;40888;48.148;11.526;2024-01-25T08:43:30;14.30;;;3.47;;
22955;SDS011;40888;48.148;11.526;2024-01-25T08:45:56;14.53;;;3.80;;
22955;SDS011;40888;48.148;11.526;2024-01-25T08:48:23;13.20;;;3.43;;
22955;SDS011;40888;48.148;11.526;2024-01-25T08:50:49;10.83;;;3.47;;
22955;SDS011;40888;48.148;11.526;2024-01-25T08:53:19;9.60;;;3.27;;
22955;SDS011;40888;48.148;11.526;2024-01-25T08:55:52;13.23;;;3.27;;
22955;SDS011;40888;48.148;11.526;2024-01-25T08:58:18;12.50;;;3.40;;
22955;SDS011;40888;48.148;11.526;2024-01-25T09:00:45;14.27;;;3.80;;
22955;SDS011;40888;48.148;11.526;2024-01-25T09:03:11;14.57;;;3.40;;
22955;SDS011;40888;48.148;11.526;2024-01-25T09:05:37;12.83;;;4.03;;
22955;SDS011;40888;48.148;11.526;2024-01-25T09:08:09;14.00;;;3.50;;
22955;SDS011;40888;48.148;11.526;2024-01-25T09:10:36;18.33;;;4.30;;
22955;SDS011;40888;48.148;11.526;2024-01-25T09:13:02;13.93;;;3.63;;
22955;SDS011;40888;48.148;11.526;2024-01-25T09:15:28;10.87;;;3.77;;
22955;SDS011;40888;48.148;11.526;2024-01-25T09:17:54;15.67;;;4.00;;
22955;SDS011;40888;48.148;11.526;2024-01-25T09:20:20;11.00;;;2.83;;
22955;SDS011;40888;48.148;11.526;2024-01-25T09:22:46;13.27;;;3.70;;
22955;SDS011;40888;48.148;11.526;2024-01-25T09:25:12;11.53;;;3.57;;
22955;SDS011;40888;48.148;11.526;2024-01-25T09:27:39;12.27;;;3.00;;
22955;SDS011;40888;48.148;11.526;2024-01-25T09:30:05;10.43;;;2.90;;
22955;SDS011;40888;48.148;11.526;2024-01-25T09:32:31;8.17;;;2.80;;
22955;SDS011;40888;48.148;11.526;2024-01-25T09:34:57;10.43;;;3.53;;
22955;SDS011;40888;48.148;11.526;2024-01-25T09:37:23;10.77;;;2.70;;
22955;SDS011;40888;48.148;11.526;2024-01-25T09:39:52;16.07;;;3.30;;
22955;SDS011;40888;48.148;11.526;2024-01-25T09:42:18;13.23;;;3.20;;
22955;SDS011;40888;48.148;11.526;2024-01-25T09:44:44;13.83;;;3.00;;
22955;SDS011;40888;48.148;11.526;2024-01-25T09:47:10;14.53;;;2.87;;
22955;SDS011;40888;48.148;11.526;2024-01-25T09:49:37;16.23;;;2.87;;
22955;SDS011;40888;48.148;11.526;2024-01-25T09:52:04;12.10;;;3.07;;
22955;SDS011;40888;48.148;11.526;2024-01-25T09:54:33;10.07;;;2.53;;
22955;SDS011;40888;48.148;11.526;2024-01-25T09:57:01;9.37;;;2.23;;
22955;SDS011;40888;48.148;11.526;2024-01-25T09:59:29;12.50;;;2.97;;
22955;SDS011;40888;48.148;11.526;2024-01-25T10:01:55;12.83;;;2.93;;
22955;SDS011;40888;48.148;11.526;2024-01-25T10:04:22;10.47;;;2.60;;
22955;SDS011;40888;48.148;11.526;2024-01-25T10:06:49;10.37;;;3.00;;
22955;SDS011;40888;48.148;11.526;2024-01-25T10:09:15;13.90;;;3.67;;
22955;SDS011;40888;48.148;11.526;2024-01-25T10:11:41;7.87;;;2.47;;
22955;SDS011;40888;48.148;11.526;2024-01-25T10:14:08;11.20;;;2.80;;
22955;SDS011;40888;48.148;11.526;2024-01-25T10:16:34;9.37;;;2.63;;
22955;SDS011;40888;48.148;11.526;2024-01-25T10:19:00;8.13;;;3.00;;
22955;SDS011;40888;48.148;11.526;2024-01-25T10:21:27;9.20;;;2.90;;
22955;SDS011;40888;48.148;11.526;2024-01-25T10:23:54;10.93;;;3.00;;
22955;SDS011;40888;48.148;11.526;2024-01-25T10:26:25;14.63;;;2.77;;
22955;SDS011;40888;48.148;11.526;2024-01-25T10:28:53;11.07;;;3.13;;
22955;SDS011;40888;48.148;11.526;2024-01-25T10:31:22;11.87;;;3.77;;
22955;SDS011;40888;48.148;11.526;2024-01-25T10:33:48;13.20;;;2.90;;
22955;SDS011;40888;48.148;11.526;2024-01-25T10:36:21;9.87;;;2.77;;
22955;SDS011;40888;48.148;11.526;2024-01-25T10:38:48;10.43;;;2.77;;
22955;SDS011;40888;48.148;11.526;2024-01-25T10:41:15;13.67;;;2.93;;
22955;SDS011;40888;48.148;11.526;2024-01-25T10:43:43;11.97;;;3.50;;
22955;SDS011;40888;48.148;11.526;2024-01-25T10:46:09;16.67;;;3.27;;
22955;SDS011;40888;48.148;11.526;2024-01-25T10:48:35;10.00;;;2.80;;
22955;SDS011;40888;48.148;11.526;2024-01-25T10:51:03;10.97;;;2.37;;
22955;SDS011;40888;48.148;11.526;2024-01-25T10:53:33;12.80;;;2.77;;
22955;SDS011;40888;48.148;11.526;2024-01-25T10:55:59;12.80;;;3.17;;
22955;SDS011;40888;48.148;11.526;2024-01-25T10:58:30;11.83;;;3.00;;
22955;SDS011;40888;48.148;11.526;2024-01-25T11:00:56;14.10;;;2.70;;
22955;SDS011;40888;48.148;11.526;2024-01-25T11:03:26;9.27;;;2.87;;
22955;SDS011;40888;48.148;11.526;2024-01-25T11:05:54;6.07;;;2.20;;
22955;SDS011;40888;48.148;11.526;2024-01-25T11:08:21;10.93;;;2.63;;
22955;SDS011;40888;48.148;11.526;2024-01-25T11:10:48;13.30;;;3.50;;
22955;SDS011;40888;48.148;11.526;2024-01-25T11:13:15;11.97;;;2.77;;
22955;SDS011;40888;48.148;11.526;2024-01-25T11:15:41;10.00;;;2.93;;
22955;SDS011;40888;48.148;11.526;2024-01-25T11:18:08;12.67;;;3.33;;
22955;SDS011;40888;48.148;11.526;2024-01-25T11:20:37;9.03;;;2.47;;
22955;SDS011;40888;48.148;11.526;2024-01-25T11:23:03;7.40;;;2.23;;
22955;SDS011;40888;48.148;11.526;2024-01-25T11:25:30;10.03;;;2.50;;
22955;SDS011;40888;48.148;11.526;2024-01-25T11:27:56;9.57;;;3.20;;
22955;SDS011;40888;48.148;11.526;2024-01-25T11:30:22;12.13;;;2.40;;
22955;SDS011;40888;48.148;11.526;2024-01-25T11:32:49;15.27;;;2.87;;
22955;SDS011;40888;48.148;11.526;2024-01-25T11:35:15;11.67;;;3.13;;
22955;SDS011;40888;48.148;11.526;2024-01-25T11:37:45;12.17;;;2.70;;
22955;SDS011;40888;48.148;11.526;2024-01-25T11:40:12;9.40;;;3.00;;
22955;SDS011;40888;48.148;11.526;2024-01-25T11:42:48;11.47;;;2.90;;
22955;SDS011;40888;48.148;11.526;2024-01-25T11:45:14;9.53;;;2.63;;
22955;SDS011;40888;48.148;11.526;2024-01-25T11:47:41;9.93;;;2.43;;
22955;SDS011;40888;48.148;11.526;2024-01-25T11:50:08;9.30;;;2.57;;
22955;SDS011;40888;48.148;11.526;2024-01-25T11:52:34;10.17;;;2.70;;
22955;SDS011;40888;48.148;11.526;2024-01-25T11:55:04;10.20;;;2.93;;
22955;SDS011;40888;48.148;11.526;2024-01-25T11:57:31;7.67;;;2.70;;
22955;SDS011;40888;48.148;11.526;2024-01-25T11:59:58;10.53;;;2.53;;
22955;SDS011;40888;48.148;11.526;2024-01-25T12:02:24;4.67;;;2.10;;
22955;SDS011;40888;48.148;11.526;2024-01-25T12:04:51;9.07;;;2.60;;
22955;SDS011;40888;48.148;11.526;2024-01-25T12:07:19;5.30;;;2.07;;
22955;SDS011;40888;48.148;11.526;2024-01-25T12:09:56;8.07;;;2.77;;
22955;SDS011;40888;48.148;11.526;2024-01-25T12:12:22;7.60;;;1.83;;
22955;SDS011;40888;48.148;11.526;2024-01-25T12:14:48;9.60;;;2.10;;
22955;SDS011;40888;48.148;11.526;2024-01-25T12:17:14;6.40;;;2.23;;
22955;SDS011;40888;48.148;11.526;2024-01-25T12:19:40;7.50;;;2.13;;
22955;SDS011;40888;48.148;11.526;2024-01-25T12:22:06;6.87;;;2.00;;
22955;SDS011;40888;48.148;11.526;2024-01-25T12:24:32;6.37;;;2.07;;
22955;SDS011;40888;48.148;11.526;2024-01-25T12:26:58;8.17;;;2.20;;
22955;SDS011;40888;48.148;11.526;2024-01-25T12:29:25;12.53;;;2.70;;
22955;SDS011;40888;48.148;11.526;2024-01-25T12:31:51;8.07;;;2.30;;
22955;SDS011;40888;48.148;11.526;2024-01-25T12:34:17;10.00;;;2.63;;
22955;SDS011;40888;48.148;11.526;2024-01-25T12:36:45;8.07;;;2.60;;
22955;SDS011;40888;48.148;11.526;2024-01-25T12:39:11;5.37;;;1.90;;
22955;SDS011;40888;48.148;11.526;2024-01-25T12:41:39;6.67;;;2.10;;
22955;SDS011;40888;48.148;11.526;2024-01-25T12:44:05;12.07;;;2.20;;
22955;SDS011;40888;48.148;11.526;2024-01-25T12:46:33;5.17;;;1.87;;
22955;SDS011;40888;48.148;11.526;2024-01-25T12:48:59;6.87;;;2.33;;
22955;SDS011;40888;48.148;11.526;2024-01-25T12:51:25;9.80;;;2.43;;
22955;SDS011;40888;48.148;11.526;2024-01-25T12:53:52;8.47;;;2.17;;
22955;SDS011;40888;48.148;11.526;2024-01-25T12:56:18;8.90;;;2.50;;
22955;SDS011;40888;48.148;11.526;2024-01-25T12:58:44;6.07;;;2.03;;
22955;SDS011;40888;48.148;11.526;2024-01-25T13:01:10;7.77;;;2.17;;
22955;SDS011;40888;48.148;11.526;2024-01-25T13:03:36;10.63;;;2.47;;
22955;SDS011;40888;48.148;11.526;2024-01-25T13:06:02;9.17;;;2.27;;
22955;SDS011;40888;48.148;11.526;2024-01-25T13:08:28;11.63;;;2.17;;
22955;SDS011;40888;48.148;11.526;2024-01-25T13:10:54;6.47;;;2.20;;
22955;SDS011;40888;48.148;11.526;2024-01-25T13:13:20;10.13;;;2.30;;
22955;SDS011;40888;48.148;11.526;2024-01-25T13:15:46;6.70;;;2.10;;
22955;SDS011;40888;48.148;11.526;2024-01-25T13:18:12;8.03;;;2.23;;
22955;SDS011;40888;48.148;11.526;2024-01-25T13:20:38;9.20;;;2.93;;
22955;SDS011;40888;48.148;11.526;2024-01-25T13:23:07;7.90;;;2.77;;
22955;SDS011;40888;48.148;11.526;2024-01-25T13:25:33;8.23;;;2.27;;
22955;SDS011;40888;48.148;11.526;2024-01-25T13:27:59;8.00;;;2.50;;
22955;SDS011;40888;48.148;11.526;2024-01-25T13:30:25;8.13;;;2.63;;
22955;SDS011;40888;48.148;11.526;2024-01-25T13:32:51;7.80;;;2.33;;
22955;SDS011;40888;48.148;11.526;2024-01-25T13:35:17;9.17;;;2.07;;
22955;SDS011;40888;48.148;11.526;2024-01-25T13:37:43;6.83;;;2.10;;
22955;SDS011;40888;48.148;11.526;2024-01-25T13:40:09;7.97;;;1.63;;
22955;SDS011;40888;48.148;11.526;2024-01-25T13:42:35;8.93;;;2.20;;
22955;SDS011;40888;48.148;11.526;2024-01-25T13:45:01;7.43;;;2.10;;
22955;SDS011;40888;48.148;11.526;2024-01-25T13:47:28;6.40;;;1.87;;
22955;SDS011;40888;48.148;11.526;2024-01-25T13:49:54;4.30;;;2.00;;
22955;SDS011;40888;48.148;11.526;2024-01-25T13:52:20;8.10;;;2.67;;
22955;SDS011;40888;48.148;11.526;2024-01-25T13:54:48;10.43;;;2.40;;
22955;SDS011;40888;48.148;11.526;2024-01-25T13:57:14;10.97;;;2.80;;
22955;SDS011;40888;48.148;11.526;2024-01-25T13:59:48;6.83;;;2.73;;
22955;SDS011;40888;48.148;11.526;2024-01-25T14:02:14;8.93;;;2.63;;
22955;SDS011;40888;48.148;11.526;2024-01-25T14:04:40;8.90;;;2.50;;
22955;SDS011;40888;48.148;11.526;2024-01-25T14:07:06;6.30;;;2.30;;
22955;SDS011;40888;48.148;11.526;2024-01-25T14:09:32;7.83;;;2.63;;
22955;SDS011;40888;48.148;11.526;2024-01-25T14:11:58;10.37;;;2.33;;
22955;SDS011;40888;48.148;11.526;2024-01-25T14:14:24;9.43;;;2.47;;
22955;SDS011;40888;48.148;11.526;2024-01-25T14:16:50;9.00;;;2.50;;
22955;SDS011;40888;48.148;11.526;2024-01-25T14:19:16;11.50;;;2.90;;
22955;SDS011;40888;48.148;11.526;2024-01-25T14:21:45;8.83;;;2.73;;
22955;SDS011;40888;48.148;11.526;2024-01-25T14:24:12;12.30;;;2.93;;